Terminal Aerodrome Forecast
Issued by NWS

Current Version | Previous Version | Text Only | Print | Product List | Glossary On
Versions: 1 2 3 4 5 6 7 8 9 10 11 12 13 14 15 16 17 18 19 20
000
FTUS41 KLWX 251137
TAFMTN
TAF
KMTN 251137Z 2512/2612 04009KT 3SM -DZ BR VCSH BKN005 OVC015
     FM251300 04012G20KT 3SM -RADZ BKN008 OVC015
     FM252100 04010KT 6SM -RA BKN008 OVC015
     FM260600 01006KT 6SM BR BKN008 OVC015=

USA.gov is the U.S. government's official web portal to all federal, state and local government web resources and services.